Time;durP1;ratioP1;P1;durP2;ratioP2;P2;SDS_P1;SDS_P2;PMS_P1;PMS_P2;Temp;Humidity;BMP_temperature;BMP_pressure;BME280_temperature;BME280_humidity;BME280_pressure;Samples;Min_cycle;Max_cycle;Signal;HPM_P1;HPM_P2
2024/02/15 00:00:19;;;;;;;20.25;8.23;;;16.50;87.30;;;;;;4079038;28;20062;-50
2024/02/15 00:03:01;;;;;;;20.42;9.93;;;16.50;87.30;;;;;;4091117;28;20078;-55
2024/02/15 00:05:44;;;;;;;18.13;9.23;;;16.50;87.30;;;;;;4090686;28;20504;-52
2024/02/15 00:08:26;;;;;;;15.20;8.93;;;16.40;87.20;;;;;;4084501;28;20071;-52
2024/02/15 00:11:09;;;;;;;19.58;9.93;;;16.40;87.40;;;;;;4074946;29;20073;-50
2024/02/15 00:13:50;;;;;;;21.92;9.50;;;16.40;87.30;;;;;;4075272;29;20064;-52
2024/02/15 00:16:31;;;;;;;16.27;8.90;;;16.40;87.40;;;;;;4078547;28;20058;-55
2024/02/15 00:19:17;;;;;;;20.95;9.23;;;16.50;87.50;;;;;;4075252;29;20698;-51
2024/02/15 00:21:58;;;;;;;19.88;8.82;;;16.40;87.50;;;;;;4076454;28;20062;-55
2024/02/15 00:24:39;;;;;;;19.40;9.18;;;16.40;87.50;;;;;;4090872;28;20054;-49
2024/02/15 00:27:21;;;;;;;16.77;9.48;;;16.40;87.60;;;;;;4063271;29;20799;-56
2024/02/15 00:30:02;;;;;;;16.75;8.98;;;16.40;87.70;;;;;;4084872;28;20055;-54
2024/02/15 00:32:45;;;;;;;;;;;16.40;87.60;;;;;;4075006;29;20097;-51
2024/02/15 00:35:27;;;;;;;18.05;9.20;;;16.40;87.60;;;;;;4089820;28;20398;-40
2024/02/15 00:38:08;;;;;;;14.45;8.63;;;16.40;87.70;;;;;;4090559;28;20101;-38
2024/02/15 00:40:49;;;;;;;16.98;8.30;;;16.40;87.80;;;;;;4090281;28;20058;-38
2024/02/15 00:43:30;;;;;;;17.38;8.93;;;16.40;87.90;;;;;;4089362;28;20057;-38
2024/02/15 00:46:11;;;;;;;19.08;10.75;;;16.40;87.90;;;;;;4078092;28;20723;-38
2024/02/15 00:48:52;;;;;;;17.35;8.77;;;16.30;87.90;;;;;;4089871;28;20054;-38
2024/02/15 00:51:36;;;;;;;18.13;9.75;;;16.40;88.00;;;;;;4089524;28;20058;-38
2024/02/15 00:54:17;;;;;;;18.67;8.85;;;16.30;87.90;;;;;;4089748;28;20050;-38
2024/02/15 00:56:58;;;;;;;14.23;8.88;;;16.30;88.00;;;;;;4084782;28;20058;-38
2024/02/15 00:59:39;;;;;;;16.48;9.52;;;16.30;88.00;;;;;;4085292;28;20126;-38
2024/02/15 01:02:20;;;;;;;19.27;9.13;;;16.30;88.10;;;;;;4087470;28;20062;-38
2024/02/15 01:05:00;;;;;;;16.48;9.00;;;16.30;89.00;;;;;;4086825;28;20420;-38
2024/02/15 01:07:44;;;;;;;18.33;9.27;;;16.30;88.20;;;;;;4088142;28;20070;-38
2024/02/15 01:10:26;;;;;;;16.60;9.70;;;16.30;88.40;;;;;;4086713;28;20062;-38
2024/02/15 01:13:08;;;;;;;20.17;8.40;;;16.30;88.40;;;;;;4087012;28;20058;-38
2024/02/15 01:15:49;;;;;;;14.55;8.65;;;16.30;88.50;;;;;;4087649;28;20050;-38
2024/02/15 01:18:31;;;;;;;20.42;9.70;;;16.20;88.50;;;;;;4088007;28;20094;-38
2024/02/15 01:21:13;;;;;;;18.50;9.43;;;16.30;88.60;;;;;;4087706;28;20050;-39
2024/02/15 01:23:55;;;;;;;20.08;11.13;;;16.20;88.50;;;;;;4085617;28;20053;-38
2024/02/15 01:26:36;;;;;;;17.13;8.98;;;16.20;88.70;;;;;;4071691;29;20195;-38
2024/02/15 01:29:17;;;;;;;24.30;10.60;;;16.20;88.60;;;;;;4072927;28;20126;-38
2024/02/15 01:31:58;;;;;;;18.00;9.20;;;16.20;88.70;;;;;;4071422;29;20103;-38
2024/02/15 01:34:39;;;;;;;17.63;8.95;;;16.20;88.70;;;;;;4072346;29;20099;-38
2024/02/15 01:37:20;;;;;;;16.20;9.15;;;16.30;88.80;;;;;;4066181;29;20529;-38
2024/02/15 01:40:03;;;;;;;16.33;9.73;;;16.20;88.80;;;;;;4068345;29;20108;-38
2024/02/15 01:42:46;;;;;;;15.48;8.63;;;16.20;88.90;;;;;;4071894;29;20054;-38
2024/02/15 01:45:27;;;;;;;15.05;8.40;;;16.20;88.90;;;;;;4070491;29;20421;-38
2024/02/15 01:48:10;;;;;;;15.73;8.45;;;16.20;88.90;;;;;;4087258;29;20058;-38
2024/02/15 01:50:51;;;;;;;15.13;7.82;;;16.20;88.90;;;;;;4086870;28;20503;-39
2024/02/15 01:53:33;;;;;;;15.50;8.18;;;16.20;89.80;;;;;;4087159;28;20143;-39
2024/02/15 01:56:18;;;;;;;13.77;7.95;;;16.20;89.10;;;;;;4085392;28;20428;-38
2024/02/15 01:58:59;;;;;;;12.50;8.52;;;16.20;89.30;;;;;;4086121;28;20551;-38
2024/02/15 02:01:40;;;;;;;16.77;8.70;;;16.20;89.10;;;;;;4086472;28;20126;-39
2024/02/15 02:04:21;;;;;;;12.93;8.63;;;16.20;89.00;;;;;;4087510;28;20524;-38
2024/02/15 02:07:02;;;;;;;15.63;7.90;;;16.20;89.10;;;;;;4087412;28;20513;-38
2024/02/15 02:09:45;;;;;;;10.75;6.68;;;16.20;89.10;;;;;;4084799;28;20054;-39
2024/02/15 02:12:28;;;;;;;16.63;7.55;;;16.20;89.30;;;;;;4085639;28;20228;-38
2024/02/15 02:15:11;;;;;;;13.20;6.80;;;16.20;89.30;;;;;;4086256;28;20516;-38
2024/02/15 02:17:52;;;;;;;10.13;6.45;;;16.20;89.30;;;;;;4087841;28;20125;-38
2024/02/15 02:20:34;;;;;;;9.40;6.10;;;16.20;89.40;;;;;;4087973;28;20054;-38
2024/02/15 02:23:18;;;;;;;14.35;7.28;;;16.20;89.30;;;;;;4089231;28;20132;-39
2024/02/15 02:26:01;;;;;;;12.48;6.43;;;16.20;89.40;;;;;;4088953;28;20534;-39
2024/02/15 02:28:42;;;;;;;10.07;5.95;;;16.20;89.40;;;;;;4088838;28;20050;-38
2024/02/15 02:31:23;;;;;;;13.85;6.00;;;16.10;89.40;;;;;;4087517;28;20083;-38
2024/02/15 02:34:06;;;;;;;10.02;6.03;;;16.10;89.50;;;;;;4070866;29;20063;-38
2024/02/15 02:36:48;;;;;;;7.80;4.63;;;16.20;89.60;;;;;;4073242;28;20420;-38
2024/02/15 02:39:31;;;;;;;15.30;5.90;;;16.10;89.50;;;;;;4088952;28;20519;-38
2024/02/15 02:42:14;;;;;;;8.65;5.53;;;16.10;89.60;;;;;;4072399;29;20054;-39
2024/02/15 02:44:55;;;;;;;10.90;5.75;;;16.10;89.60;;;;;;4073339;29;20054;-39
2024/02/15 02:47:36;;;;;;;9.87;4.77;;;16.10;89.60;;;;;;4073396;28;20079;-38
2024/02/15 02:50:17;;;;;;;12.18;4.85;;;16.10;89.60;;;;;;4088082;28;20306;-38
2024/02/15 02:52:59;;;;;;;12.32;5.43;;;16.10;89.70;;;;;;4089163;28;20058;-38
2024/02/15 02:55:40;;;;;;;;;;;16.10;89.80;;;;;;4077652;28;20058;-39
2024/02/15 02:58:22;;;;;;;5.45;3.83;;;16.10;89.80;;;;;;4089183;28;19933;-38
2024/02/15 03:01:03;;;;;;;8.60;4.35;;;16.10;89.80;;;;;;4069551;28;20058;-39
2024/02/15 03:03:45;;;;;;;11.75;4.85;;;16.10;89.80;;;;;;4077279;28;20503;-38
2024/02/15 03:06:26;;;;;;;13.18;4.70;;;16.10;90.30;;;;;;4089283;28;20504;-39
2024/02/15 03:09:09;;;;;;;8.57;4.18;;;16.10;90.00;;;;;;4092187;28;20452;-50
2024/02/15 03:11:51;;;;;;;6.50;3.95;;;16.10;90.00;;;;;;4080129;28;20130;-54
2024/02/15 03:14:35;;;;;;;8.48;4.80;;;16.10;90.10;;;;;;4091690;28;20129;-54
2024/02/15 03:17:16;;;;;;;6.60;4.20;;;16.10;90.00;;;;;;4091691;28;20050;-53
2024/02/15 03:19:57;;;;;;;5.07;4.10;;;16.10;90.00;;;;;;4092245;28;20051;-50
2024/02/15 03:22:38;;;;;;;8.05;4.35;;;16.10;90.40;;;;;;4090333;28;20054;-50
2024/02/15 03:25:19;;;;;;;6.47;3.83;;;16.10;90.10;;;;;;4090796;28;20066;-52
2024/02/15 03:28:03;;;;;;;9.63;4.43;;;16.10;90.00;;;;;;4090952;28;20105;-54
2024/02/15 03:30:46;;;;;;;6.22;3.47;;;16.10;90.00;;;;;;4091506;28;20186;-54
2024/02/15 03:33:32;;;;;;;8.40;4.25;;;16.10;90.00;;;;;;4091734;28;20066;-53
2024/02/15 03:36:16;;;;;;;9.35;4.22;;;16.10;90.00;;;;;;4069738;29;20058;-51
2024/02/15 03:38:56;;;;;;;7.03;4.00;;;16.10;90.00;;;;;;4075381;29;20440;-49
2024/02/15 03:41:37;;;;;;;7.85;4.00;;;16.10;90.00;;;;;;4075594;29;20063;-52
2024/02/15 03:44:19;;;;;;;7.53;3.72;;;16.00;90.40;;;;;;4075678;29;20055;-48
2024/02/15 03:47:01;;;;;;;9.77;4.43;;;16.10;90.00;;;;;;4075639;29;20122;-51
2024/02/15 03:49:42;;;;;;;9.85;3.83;;;16.00;90.00;;;;;;4076017;29;20573;-53
2024/02/15 03:52:23;;;;;;;11.85;3.83;;;16.10;90.10;;;;;;4074762;29;20058;-38
2024/02/15 03:55:05;;;;;;;10.30;4.20;;;16.00;90.40;;;;;;4075265;29;20063;-39
2024/02/15 03:57:46;;;;;;;6.60;3.58;;;16.00;90.10;;;;;;4037673;29;20051;-38
2024/02/15 04:00:27;;;;;;;10.55;4.28;;;16.10;90.10;;;;;;4059956;29;20063;-39
2024/02/15 04:03:10;;;;;;;11.27;4.60;;;16.10;90.50;;;;;;4060496;29;20549;-39
2024/02/15 04:05:51;;;;;;;11.10;4.68;;;16.00;90.10;;;;;;4060000;29;20068;-38
2024/02/15 04:08:32;;;;;;;8.88;3.95;;;16.10;90.10;;;;;;4060027;29;20067;-38
2024/02/15 04:11:14;;;;;;;10.93;4.00;;;16.00;90.10;;;;;;4059759;29;20078;-38
2024/02/15 04:13:57;;;;;;;;;;;16.00;90.10;;;;;;4075278;29;20058;-38
2024/02/15 04:16:38;;;;;;;15.35;5.15;;;16.00;90.10;;;;;;4075492;29;19929;-38
2024/02/15 04:19:21;;;;;;;14.68;4.72;;;16.00;90.10;;;;;;4073791;29;20046;-38
2024/02/15 04:22:07;;;;;;;9.98;4.85;;;16.00;90.20;;;;;;4075414;29;20121;-38
2024/02/15 04:24:48;;;;;;;16.45;5.25;;;16.10;90.30;;;;;;4069391;29;20058;-38
2024/02/15 04:27:29;;;;;;;12.25;4.43;;;16.10;90.10;;;;;;4061708;29;20130;-38
2024/02/15 04:30:11;;;;;;;14.98;5.60;;;16.20;90.10;;;;;;4074569;29;20062;-39
2024/02/15 04:32:53;;;;;;;11.13;4.72;;;16.20;90.00;;;;;;4075068;29;20075;-38
2024/02/15 04:35:36;;;;;;;13.48;5.35;;;16.30;89.90;;;;;;4089198;28;20054;-38
2024/02/15 04:38:19;;;;;;;10.40;5.60;;;16.30;89.90;;;;;;4090449;28;20062;-38
2024/02/15 04:41:00;;;;;;;16.67;5.93;;;16.30;89.70;;;;;;4082509;28;20058;-38
2024/02/15 04:43:42;;;;;;;14.50;5.70;;;16.30;89.70;;;;;;4090949;28;20384;-39
2024/02/15 04:46:24;;;;;;;13.45;5.53;;;16.30;89.70;;;;;;4090147;28;20568;-38
2024/02/15 04:49:06;;;;;;;17.40;6.15;;;16.30;89.70;;;;;;4090492;28;20058;-38
2024/02/15 04:51:48;;;;;;;14.85;5.88;;;16.30;89.70;;;;;;4089833;28;20066;-38
2024/02/15 04:54:29;;;;;;;10.32;6.35;;;16.30;89.70;;;;;;4090256;28;20051;-38
2024/02/15 04:57:11;;;;;;;13.32;6.72;;;16.30;89.70;;;;;;4090624;28;20062;-38
2024/02/15 04:59:53;;;;;;;14.50;9.10;;;16.30;89.70;;;;;;4090406;28;20058;-38
2024/02/15 05:02:40;;;;;;;14.10;7.78;;;16.30;89.90;;;;;;4090146;28;20508;-38
2024/02/15 05:05:21;;;;;;;15.88;8.13;;;16.30;90.30;;;;;;4078643;28;20070;-38
2024/02/15 05:08:05;;;;;;;20.00;8.00;;;16.30;89.80;;;;;;4083383;28;20491;-38
2024/02/15 05:10:46;;;;;;;11.02;7.93;;;16.40;89.70;;;;;;4074333;28;20059;-38
2024/02/15 05:13:27;;;;;;;;;;;16.40;89.60;;;;;;4074637;29;20783;-38
2024/02/15 05:16:08;;;;;;;12.75;8.38;;;16.40;89.50;;;;;;4084226;28;19929;-38
2024/02/15 05:18:49;;;;;;;16.02;8.77;;;16.40;89.50;;;;;;4090053;28;20065;-38
2024/02/15 05:21:30;;;;;;;17.70;9.52;;;16.40;90.10;;;;;;4090671;28;20129;-38
2024/02/15 05:24:14;;;;;;;15.20;9.95;;;16.40;89.50;;;;;;4089678;28;20099;-38
2024/02/15 05:26:55;;;;;;;17.23;10.00;;;16.40;89.50;;;;;;4090052;28;20050;-38
2024/02/15 05:29:36;;;;;;;18.70;10.77;;;16.50;89.40;;;;;;4090020;28;20066;-38
2024/02/15 05:32:19;;;;;;;19.13;10.55;;;16.50;89.20;;;;;;4089966;28;20179;-39
2024/02/15 05:35:01;;;;;;;17.45;9.88;;;16.50;89.10;;;;;;4089652;28;20069;-38
2024/02/15 05:37:42;;;;;;;16.05;9.93;;;16.60;89.00;;;;;;4085352;28;20621;-38
2024/02/15 05:40:25;;;;;;;15.85;10.32;;;16.50;89.00;;;;;;4089095;28;20074;-38
2024/02/15 05:43:06;;;;;;;17.08;10.60;;;16.50;89.00;;;;;;4089642;28;20253;-38
2024/02/15 05:45:49;;;;;;;13.68;9.05;;;16.50;89.00;;;;;;4089501;28;20077;-38
2024/02/15 05:48:29;;;;;;;14.30;9.70;;;16.50;89.00;;;;;;4078123;28;20495;-39
2024/02/15 05:51:10;;;;;;;19.13;10.48;;;16.50;89.10;;;;;;4089539;28;20058;-38
2024/02/15 05:53:54;;;;;;;14.57;9.20;;;16.50;89.20;;;;;;4089391;28;20515;-38
2024/02/15 05:56:37;;;;;;;17.42;11.95;;;16.50;89.30;;;;;;4089708;28;20062;-39
2024/02/15 05:59:20;;;;;;;17.50;11.75;;;16.50;89.40;;;;;;4089064;28;20818;-38
2024/02/15 06:02:02;;;;;;;19.52;10.55;;;16.50;89.40;;;;;;4066425;29;20054;-39
2024/02/15 06:04:44;;;;;;;15.88;11.40;;;16.50;89.30;;;;;;4062137;29;20066;-39
2024/02/15 06:07:24;;;;;;;14.63;11.43;;;16.60;89.20;;;;;;4087004;28;20066;-38
2024/02/15 06:10:07;;;;;;;;;;;16.60;89.20;;;;;;4090475;28;20074;-38
2024/02/15 06:12:50;;;;;;;17.90;11.60;;;16.60;89.00;;;;;;4099925;28;19986;-38
2024/02/15 06:15:31;;;;;;;21.70;12.27;;;16.60;88.90;;;;;;4089875;28;20106;-38
2024/02/15 06:18:14;;;;;;;14.90;11.00;;;16.50;88.90;;;;;;4089417;28;20054;-54
2024/02/15 06:20:57;;;;;;;19.85;11.68;;;16.50;89.00;;;;;;4089384;28;20050;-50
2024/02/15 06:23:38;;;;;;;18.73;12.60;;;16.50;89.20;;;;;;4089053;28;20499;-55
2024/02/15 06:26:20;;;;;;;16.80;12.13;;;16.50;89.20;;;;;;4089383;28;20062;-54
2024/02/15 06:40:57;;;;;;;21.13;12.57;;;16.70;88.90;;;;;;4086651;28;20168;-48
2024/02/15 06:43:39;;;;;;;15.73;11.30;;;16.70;88.90;;;;;;4088533;28;20054;-55
2024/02/15 06:46:21;;;;;;;17.08;12.73;;;16.70;88.70;;;;;;4089121;28;20066;-55
2024/02/15 06:49:04;;;;;;;17.80;12.18;;;16.80;88.60;;;;;;4088846;28;20078;-50
2024/02/15 06:51:48;;;;;;;17.52;12.85;;;16.80;88.50;;;;;;4088968;28;20246;-50
2024/02/15 06:54:30;;;;;;;22.35;12.15;;;16.80;88.60;;;;;;4073190;29;20409;-51
2024/02/15 06:57:11;;;;;;;20.50;12.25;;;16.80;88.80;;;;;;4073343;29;20059;-48
2024/02/15 06:59:52;;;;;;;16.52;12.55;;;16.80;88.70;;;;;;4075872;28;20089;-51
2024/02/15 07:02:35;;;;;;;18.90;12.95;;;16.80;88.70;;;;;;4073002;29;20058;-50
2024/02/15 07:05:17;;;;;;;17.92;12.00;;;16.80;88.70;;;;;;4083629;28;20058;-51
2024/02/15 07:07:57;;;;;;;21.15;13.18;;;16.70;88.70;;;;;;4088604;28;20396;-51
2024/02/15 07:10:39;;;;;;;16.77;12.57;;;16.70;88.80;;;;;;4072278;29;20156;-51
2024/02/15 07:13:20;;;;;;;23.40;13.35;;;16.70;88.90;;;;;;4073062;28;20830;-37
2024/02/15 07:16:01;;;;;;;17.63;13.13;;;16.70;89.00;;;;;;4072476;29;20054;-37
2024/02/15 07:18:46;;;;;;;16.10;12.45;;;16.60;89.00;;;;;;4087932;28;20054;-37
2024/02/15 07:21:27;;;;;;;17.33;13.40;;;16.60;89.10;;;;;;4086438;28;20125;-38
2024/02/15 07:24:09;;;;;;;18.02;12.82;;;16.60;89.30;;;;;;4088137;28;20050;-38
2024/02/15 07:26:52;;;;;;;17.92;12.13;;;16.50;89.30;;;;;;4088749;28;20187;-38
2024/02/15 07:29:33;;;;;;;16.60;11.73;;;16.50;89.40;;;;;;4087688;28;20109;-37
2024/02/15 07:32:14;;;;;;;17.90;13.48;;;16.50;89.50;;;;;;4087761;28;20062;-38
2024/02/15 07:34:57;;;;;;;18.08;12.27;;;16.50;89.60;;;;;;4087641;28;20567;-38
2024/02/15 07:37:38;;;;;;;20.95;12.63;;;16.40;89.60;;;;;;4088852;28;20050;-52
2024/02/15 07:40:21;;;;;;;15.98;11.27;;;16.40;89.60;;;;;;4089086;28;20165;-54
2024/02/15 07:43:03;;;;;;;15.52;10.88;;;16.40;89.60;;;;;;4088357;28;20054;-48
2024/02/15 07:45:44;;;;;;;;;;;16.40;89.70;;;;;;4088547;28;20046;-52
2024/02/15 07:48:25;;;;;;;18.92;11.77;;;16.40;89.50;;;;;;4075639;28;19981;-54
2024/02/15 07:51:09;;;;;;;16.88;10.63;;;16.50;89.60;;;;;;4088052;28;20054;-53
2024/02/15 07:53:51;;;;;;;16.45;10.60;;;16.50;89.30;;;;;;4090011;28;20050;-54
2024/02/15 07:56:32;;;;;;;20.85;11.63;;;16.60;89.10;;;;;;4091193;28;20066;-54
2024/02/15 07:59:16;;;;;;;17.48;10.98;;;16.60;88.80;;;;;;4089590;28;20062;-51
2024/02/15 08:01:57;;;;;;;16.15;10.52;;;16.70;89.50;;;;;;4091524;28;20110;-50
2024/02/15 08:04:40;;;;;;;15.68;10.25;;;16.70;88.40;;;;;;4095580;28;20065;-50
2024/02/15 08:07:23;;;;;;;14.43;9.95;;;16.80;88.10;;;;;;4087053;28;20062;-37
2024/02/15 08:10:04;;;;;;;13.23;9.48;;;16.80;87.90;;;;;;4091593;28;20555;-37
2024/02/15 08:12:48;;;;;;;14.23;10.32;;;16.80;88.00;;;;;;4087979;28;20555;-37
2024/02/15 08:15:30;;;;;;;17.80;10.73;;;16.80;87.80;;;;;;4090838;28;20517;-37
2024/02/15 08:18:12;;;;;;;14.27;9.63;;;16.80;87.80;;;;;;4090311;28;20058;-37
2024/02/15 08:20:53;;;;;;;15.35;10.07;;;16.80;87.80;;;;;;4090295;28;20066;-50
2024/02/15 08:23:36;;;;;;;14.20;8.27;;;16.80;87.80;;;;;;4106733;28;20186;-51
2024/02/15 08:26:17;;;;;;;10.20;8.60;;;16.80;87.80;;;;;;4086491;28;20192;-52
2024/02/15 08:28:58;;;;;;;13.23;8.50;;;16.80;88.00;;;;;;4080486;28;20054;-49
2024/02/15 08:31:41;;;;;;;13.57;8.82;;;16.80;88.10;;;;;;4085672;28;20062;-52
2024/02/15 08:34:21;;;;;;;13.88;8.60;;;16.80;88.30;;;;;;4091047;28;20542;-52
2024/02/15 08:37:02;;;;;;;15.52;9.35;;;16.80;88.40;;;;;;4090213;28;20094;-36
2024/02/15 08:39:45;;;;;;;11.27;7.97;;;16.70;88.40;;;;;;4093847;28;20497;-37
2024/02/15 08:42:26;;;;;;;11.32;8.27;;;16.70;88.50;;;;;;4092132;28;20049;-37
2024/02/15 08:45:09;;;;;;;9.60;8.48;;;16.70;88.50;;;;;;4090262;28;20389;-37
2024/02/15 08:47:53;;;;;;;10.82;7.63;;;16.70;89.50;;;;;;4090780;28;20201;-38
2024/02/15 08:50:34;;;;;;;11.70;8.05;;;16.70;88.70;;;;;;4090900;28;20050;-50
2024/02/15 08:53:16;;;;;;;14.10;7.72;;;16.70;88.70;;;;;;4083443;28;20417;-50
2024/02/15 08:55:59;;;;;;;9.90;7.22;;;16.70;88.90;;;;;;4089179;28;20058;-51
2024/02/15 08:58:40;;;;;;;9.38;7.72;;;16.70;88.90;;;;;;4088968;28;20397;-55
2024/02/15 09:01:22;;;;;;;;;;;16.70;89.80;;;;;;4087683;28;20590;-51
2024/02/15 09:04:03;;;;;;;10.85;7.32;;;16.60;89.00;;;;;;4074147;29;19929;-50
2024/02/15 09:06:44;;;;;;;12.00;7.57;;;16.60;88.90;;;;;;4074297;29;20050;-52
2024/02/15 09:09:25;;;;;;;;;;;16.60;89.00;;;;;;4084761;28;20138;-52
2024/02/15 09:12:08;;;;;;;9.98;7.35;;;16.60;89.00;;;;;;4086563;28;20296;-49
2024/02/15 09:14:50;;;;;;;9.88;7.18;;;16.60;89.10;;;;;;4086520;28;20191;-50
2024/02/15 09:17:32;;;;;;;8.13;6.82;;;16.60;89.50;;;;;;4085524;28;20137;-53
2024/02/15 09:20:18;;;;;;;7.95;6.70;;;16.60;89.20;;;;;;4087434;28;20673;-51
2024/02/15 09:23:04;;;;;;;10.32;6.97;;;16.50;89.30;;;;;;4087291;28;20054;-48
2024/02/15 09:25:49;;;;;;;9.18;6.22;;;16.50;89.40;;;;;;4087728;28;20064;-49
2024/02/15 09:28:32;;;;;;;8.65;6.18;;;16.50;89.40;;;;;;4087309;28;20050;-48
2024/02/15 09:31:14;;;;;;;6.82;6.13;;;16.60;89.50;;;;;;4087330;28;20058;-50
2024/02/15 09:33:55;;;;;;;9.63;6.32;;;16.60;89.30;;;;;;4089419;28;20066;-49
2024/02/15 09:36:38;;;;;;;7.32;6.60;;;16.60;89.30;;;;;;4076911;28;20147;-51
2024/02/15 09:39:19;;;;;;;7.38;5.35;;;16.60;89.30;;;;;;4071774;29;20061;-50
2024/02/15 09:42:00;;;;;;;7.55;6.05;;;16.60;89.20;;;;;;4069528;29;20070;-50
2024/02/15 09:44:46;;;;;;;7.28;5.95;;;16.60;89.20;;;;;;4076749;28;20050;-53
2024/02/15 09:47:30;;;;;;;10.23;6.22;;;16.60;89.20;;;;;;4080807;29;20429;-52
2024/02/15 09:50:13;;;;;;;7.22;5.85;;;16.60;89.30;;;;;;4071593;29;20070;-50
2024/02/15 09:52:54;;;;;;;6.75;6.03;;;16.50;89.30;;;;;;4073536;28;20239;-51
2024/02/15 09:55:36;;;;;;;6.95;5.82;;;16.50;89.40;;;;;;4076442;29;20050;-49
2024/02/15 09:58:18;;;;;;;5.80;5.30;;;16.50;89.50;;;;;;4066735;28;20525;-54
2024/02/15 10:01:03;;;;;;;7.00;6.18;;;16.50;89.50;;;;;;4076906;28;21100;-54
2024/02/15 10:03:45;;;;;;;6.90;6.20;;;16.50;89.60;;;;;;4073054;29;20401;-52
2024/02/15 10:06:27;;;;;;;10.93;6.10;;;16.50;89.70;;;;;;4074139;28;20054;-50
2024/02/15 10:09:36;;;;;;;7.90;5.30;;;16.50;89.80;;;;;;4070895;29;20194;-49
2024/02/15 10:12:17;;;;;;;8.65;5.75;;;16.40;89.80;;;;;;4041750;29;20055;-52
2024/02/15 10:14:58;;;;;;;6.18;5.55;;;16.40;89.90;;;;;;4071179;29;20082;-50
2024/02/15 10:17:42;;;;;;;7.13;6.18;;;16.40;89.90;;;;;;4076887;28;20058;-52
2024/02/15 10:20:25;;;;;;;8.80;6.38;;;16.40;90.00;;;;;;4071325;29;20063;-51
2024/02/15 10:23:14;;;;;;;6.57;5.97;;;16.40;90.00;;;;;;4072263;28;20054;-49
2024/02/15 10:25:56;;;;;;;7.15;5.75;;;16.40;90.10;;;;;;4081398;28;20070;-49
2024/02/15 10:28:37;;;;;;;5.93;5.40;;;16.40;90.10;;;;;;4070485;29;20397;-51
2024/02/15 10:31:18;;;;;;;;;;;16.40;90.10;;;;;;4066037;29;20382;-52
2024/02/15 10:34:05;;;;;;;6.63;4.57;;;16.40;90.20;;;;;;4071168;29;20307;-50
2024/02/15 10:36:46;;;;;;;7.55;5.18;;;16.30;90.20;;;;;;4078414;28;20071;-50
2024/02/15 10:39:27;;;;;;;5.25;4.78;;;16.40;90.20;;;;;;4072603;28;20154;-53
2024/02/15 10:42:10;;;;;;;;;;;16.30;90.20;;;;;;4073716;29;20050;-51
2024/02/15 10:44:53;;;;;;;6.30;4.55;;;16.30;90.20;;;;;;4073136;29;19973;-49
2024/02/15 10:47:36;;;;;;;5.43;3.97;;;16.30;90.20;;;;;;4080208;29;20058;-49
2024/02/15 10:50:20;;;;;;;4.93;4.45;;;16.30;90.20;;;;;;4079180;28;20669;-51
2024/02/15 10:53:10;;;;;;;5.43;4.93;;;16.30;90.30;;;;;;4060151;29;20110;-52
2024/02/15 10:56:06;;;;;;;5.07;4.68;;;16.30;90.40;;;;;;4070390;29;20090;-53
2024/02/15 10:58:50;;;;;;;4.85;4.35;;;16.30;90.40;;;;;;4077747;28;20156;-52
2024/02/15 11:01:34;;;;;;;5.55;3.95;;;16.30;90.40;;;;;;4070949;29;20492;-51
2024/02/15 11:04:21;;;;;;;4.38;4.07;;;16.30;90.40;;;;;;4081389;28;20058;-49
2024/02/15 11:07:06;;;;;;;4.70;4.30;;;16.30;90.40;;;;;;4081171;28;20065;-48
2024/02/15 11:09:47;;;;;;;5.15;4.65;;;16.20;90.40;;;;;;4082300;28;20054;-53
2024/02/15 11:12:30;;;;;;;5.10;4.30;;;16.20;90.40;;;;;;4071220;28;20635;-50
2024/02/15 11:15:13;;;;;;;4.78;4.38;;;16.30;90.50;;;;;;4085664;28;20164;-52
2024/02/15 11:17:56;;;;;;;4.50;4.07;;;16.30;90.60;;;;;;4084532;28;20054;-49
2024/02/15 11:20:49;;;;;;;3.97;3.67;;;16.20;90.60;;;;;;4074485;28;20117;-50
2024/02/15 11:23:31;;;;;;;3.65;3.40;;;16.20;91.00;;;;;;4085185;28;20066;-50
2024/02/15 11:26:47;;;;;;;4.05;3.63;;;16.30;90.70;;;;;;4077848;28;20065;-53
2024/02/15 11:29:52;;;;;;;4.35;4.05;;;16.30;90.70;;;;;;4076405;28;20838;-50
2024/02/15 11:32:43;;;;;;;4.35;3.78;;;16.20;90.70;;;;;;4072711;29;20512;-49
2024/02/15 11:35:25;;;;;;;3.95;3.65;;;16.20;90.70;;;;;;4080173;28;20141;-41
2024/02/15 11:38:09;;;;;;;4.30;3.30;;;16.30;90.80;;;;;;4089711;28;20500;-53
2024/02/15 11:41:06;;;;;;;3.47;3.22;;;16.20;90.80;;;;;;4105135;28;20046;-52
2024/02/15 11:43:58;;;;;;;3.00;2.80;;;16.20;90.80;;;;;;4092651;28;20428;-52
2024/02/15 11:46:40;;;;;;;4.10;3.33;;;16.20;90.80;;;;;;4089930;28;20849;-49
2024/02/15 11:49:21;;;;;;;3.17;2.97;;;16.20;90.80;;;;;;4097584;28;20066;-48
2024/02/15 11:52:11;;;;;;;2.78;2.58;;;16.20;90.90;;;;;;4104577;28;20050;-52
2024/02/15 11:54:53;;;;;;;3.10;2.80;;;16.20;90.90;;;;;;4088681;28;20187;-49
2024/02/15 11:57:47;;;;;;;2.83;2.65;;;16.20;90.90;;;;;;4088639;28;20107;-49
2024/02/15 12:18:42;;;;;;;2.10;2.00;;;16.10;91.00;;;;;;4095542;28;20133;-52
2024/02/15 12:21:26;;;;;;;1.67;1.60;;;16.20;91.00;;;;;;4089233;28;20066;-53
2024/02/15 12:24:08;;;;;;;1.50;1.50;;;16.10;91.00;;;;;;4088318;28;20058;-51
2024/02/15 12:26:49;;;;;;;2.47;1.50;;;16.10;91.10;;;;;;4091829;28;20098;-48
2024/02/15 12:29:30;;;;;;;3.60;1.30;;;16.10;91.20;;;;;;4088803;28;20055;-52
2024/02/15 12:32:21;;;;;;;1.70;1.60;;;16.10;91.30;;;;;;4088722;28;20058;-46
2024/02/15 12:35:15;;;;;;;1.50;1.40;;;16.20;91.40;;;;;;4072146;28;20050;-49
2024/02/15 12:38:05;;;;;;;1.45;1.33;;;16.20;91.30;;;;;;4104574;28;20058;-51
2024/02/15 12:40:47;;;;;;;1.20;1.10;;;16.20;91.40;;;;;;4088104;28;20179;-48
2024/02/15 12:43:29;;;;;;;1.45;1.00;;;16.30;91.40;;;;;;4087361;28;20057;-51
2024/02/15 12:46:10;;;;;;;1.60;1.50;;;16.30;91.70;;;;;;4088375;28;20412;-47
2024/02/15 12:48:52;;;;;;;1.05;1.05;;;16.30;91.30;;;;;;4092470;28;20118;-47
2024/02/15 12:51:34;;;;;;;4.60;1.23;;;16.40;91.40;;;;;;4086712;28;20058;-49
2024/02/15 12:54:21;;;;;;;1.50;1.40;;;16.50;91.60;;;;;;4088752;28;20054;-50
2024/02/15 12:57:09;;;;;;;1.23;1.05;;;16.60;91.90;;;;;;4088017;28;20405;-48
2024/02/15 12:59:53;;;;;;;1.20;1.20;;;16.60;91.60;;;;;;4088550;28;20160;-54
2024/02/15 13:02:34;;;;;;;1.23;1.23;;;16.70;91.30;;;;;;4099611;28;20058;-52
2024/02/15 13:05:18;;;;;;;1.52;1.42;;;16.80;91.20;;;;;;4103340;28;20125;-52
2024/02/15 13:08:01;;;;;;;1.85;1.63;;;16.80;91.00;;;;;;4091569;28;20054;-45
2024/02/15 13:10:41;;;;;;;2.28;1.70;;;16.80;90.90;;;;;;4100942;28;20649;-51
2024/02/15 13:13:23;;;;;;;3.60;2.20;;;16.80;90.90;;;;;;4095025;28;20062;-47
2024/02/15 13:16:06;;;;;;;2.13;1.90;;;16.80;90.70;;;;;;4087421;28;20058;-48
2024/02/15 13:18:47;;;;;;;2.47;2.28;;;16.80;90.60;;;;;;4087935;28;20269;-43
2024/02/15 13:21:30;;;;;;;;;;;16.80;90.60;;;;;;4111930;28;20061;-47
2024/02/15 13:24:11;;;;;;;2.75;2.38;;;16.80;90.70;;;;;;4096529;28;19933;-53
2024/02/15 13:26:52;;;;;;;;;;;16.80;90.80;;;;;;4087413;28;20054;-50
2024/02/15 13:29:35;;;;;;;3.22;3.00;;;16.80;90.70;;;;;;4096761;28;19930;-49
2024/02/15 13:32:16;;;;;;;2.88;2.67;;;16.80;90.80;;;;;;4092355;28;20062;-50
2024/02/15 13:34:59;;;;;;;3.20;2.90;;;17.00;91.00;;;;;;4095188;28;20460;-50
2024/02/15 13:37:47;;;;;;;3.15;2.90;;;17.10;90.90;;;;;;4090652;28;20061;-50
2024/02/15 13:40:31;;;;;;;3.20;3.00;;;17.20;90.50;;;;;;4086723;28;20515;-51
2024/02/15 13:43:12;;;;;;;3.25;2.95;;;17.20;90.40;;;;;;4089833;28;20050;-52
2024/02/15 13:45:53;;;;;;;3.50;3.20;;;17.20;90.30;;;;;;4103064;28;20622;-48
2024/02/15 13:48:35;;;;;;;3.72;3.20;;;17.10;90.20;;;;;;4087673;28;20510;-47
2024/02/15 13:51:17;;;;;;;3.50;3.20;;;17.00;90.20;;;;;;4087447;28;20089;-53
2024/02/15 13:53:59;;;;;;;3.95;3.08;;;17.00;90.30;;;;;;4101896;28;20063;-50
2024/02/15 13:56:40;;;;;;;3.17;2.97;;;16.90;90.40;;;;;;4089146;28;20062;-48
2024/02/15 13:59:21;;;;;;;2.85;2.65;;;16.80;90.40;;;;;;4086828;28;20066;-48
2024/02/15 14:02:06;;;;;;;3.35;3.13;;;16.80;90.50;;;;;;4087565;28;20054;-49
2024/02/15 14:04:46;;;;;;;;;;;16.70;90.60;;;;;;4087025;28;20598;-49
2024/02/15 14:07:27;;;;;;;2.97;2.75;;;16.70;90.60;;;;;;4101385;28;20382;-48
2024/02/15 14:10:12;;;;;;;2.75;2.63;;;16.70;90.70;;;;;;4075247;28;20050;-48
2024/02/15 14:12:55;;;;;;;4.90;2.95;;;16.60;90.70;;;;;;4087185;28;20051;-36
2024/02/15 14:15:40;;;;;;;5.40;2.80;;;16.60;90.80;;;;;;4100796;28;20089;-36
2024/02/15 14:18:22;;;;;;;2.78;2.55;;;16.60;91.20;;;;;;4087345;28;20416;-36
2024/02/15 14:21:03;;;;;;;3.15;2.95;;;16.50;90.90;;;;;;4086497;28;20187;-35
2024/02/15 14:23:44;;;;;;;;;;;16.50;91.00;;;;;;4094007;28;20056;-35
2024/02/15 14:26:31;;;;;;;2.55;2.35;;;16.50;91.00;;;;;;4084208;28;19933;-35
2024/02/15 14:29:14;;;;;;;2.67;2.47;;;16.50;91.00;;;;;;4086083;28;20620;-37
2024/02/15 14:34:53;;;;;;;2.85;2.50;;;16.40;91.10;;;;;;4086446;28;20511;-37